sensor_id;sensor_type;location;lat;lon;timestamp;pressure;altitude;pressure_sealevel;temperature;humidity
77013;BME280;67260;53.130;17.982;2023-12-22T00:00:53;97165.12;;;4.53;73.04
77013;BME280;67260;53.130;17.982;2023-12-22T00:03:39;97173.75;;;4.55;72.84
77013;BME280;67260;53.130;17.982;2023-12-22T00:06:11;97169.18;;;4.55;73.69
77013;BME280;67260;53.130;17.982;2023-12-22T00:08:40;97171.75;;;4.55;73.14
77013;BME280;67260;53.130;17.982;2023-12-22T00:11:28;97169.23;;;4.54;74.13
77013;BME280;67260;53.130;17.982;2023-12-22T00:13:55;97167.91;;;4.52;74.44
77013;BME280;67260;53.130;17.982;2023-12-22T00:16:22;97162.16;;;4.51;74.33
77013;BME280;67260;53.130;17.982;2023-12-22T00:18:49;97166.00;;;4.51;74.76
77013;BME280;67260;53.130;17.982;2023-12-22T00:21:15;97163.41;;;4.49;74.34
77013;BME280;67260;53.130;17.982;2023-12-22T00:23:42;97163.36;;;4.49;74.36
77013;BME280;67260;53.130;17.982;2023-12-22T00:26:09;97158.41;;;4.47;74.72
77013;BME280;67260;53.130;17.982;2023-12-22T00:28:43;97158.40;;;4.46;74.90
77013;BME280;67260;53.130;17.982;2023-12-22T00:31:11;97162.34;;;4.46;75.14
77013;BME280;67260;53.130;17.982;2023-12-22T00:33:42;97167.29;;;4.47;75.47
77013;BME280;67260;53.130;17.982;2023-12-22T00:36:08;97171.39;;;4.46;75.18
77013;BME280;67260;53.130;17.982;2023-12-22T00:38:35;97173.39;;;4.46;75.18
77013;BME280;67260;53.130;17.982;2023-12-22T00:41:05;97184.83;;;4.43;76.14
77013;BME280;67260;53.130;17.982;2023-12-22T00:43:32;97199.70;;;4.36;77.32
77013;BME280;67260;53.130;17.982;2023-12-22T00:45:59;97225.61;;;4.28;77.85
77013;BME280;67260;53.130;17.982;2023-12-22T00:48:30;97226.27;;;4.17;78.92
77013;BME280;67260;53.130;17.982;2023-12-22T00:50:57;97234.24;;;4.07;79.76
77013;BME280;67260;53.130;17.982;2023-12-22T00:53:24;97234.31;;;3.96;80.16
77013;BME280;67260;53.130;17.982;2023-12-22T00:55:50;97243.84;;;3.87;80.85
77013;BME280;67260;53.130;17.982;2023-12-22T00:58:17;97242.96;;;3.78;81.64
77013;BME280;67260;53.130;17.982;2023-12-22T01:00:44;97250.59;;;3.69;82.30
77013;BME280;67260;53.130;17.982;2023-12-22T01:03:11;97244.83;;;3.59;82.98
77013;BME280;67260;53.130;17.982;2023-12-22T01:05:42;97246.98;;;3.50;83.44
77013;BME280;67260;53.130;17.982;2023-12-22T01:11:11;97237.15;;;3.33;83.79
77013;BME280;67260;53.130;17.982;2023-12-22T01:13:42;97233.20;;;3.28;84.00
77013;BME280;67260;53.130;17.982;2023-12-22T01:16:08;97232.00;;;3.23;83.88
77013;BME280;67260;53.130;17.982;2023-12-22T01:18:35;97230.41;;;3.18;83.70
77013;BME280;67260;53.130;17.982;2023-12-22T01:21:02;97230.48;;;3.15;83.65
77013;BME280;67260;53.130;17.982;2023-12-22T01:23:29;97229.59;;;3.16;83.88
77013;BME280;67260;53.130;17.982;2023-12-22T01:25:55;97231.35;;;3.17;83.91
77013;BME280;67260;53.130;17.982;2023-12-22T01:28:22;97232.77;;;3.17;83.92
77013;BME280;67260;53.130;17.982;2023-12-22T01:30:49;97233.21;;;3.19;83.74
77013;BME280;67260;53.130;17.982;2023-12-22T01:33:15;97237.58;;;3.21;83.69
77013;BME280;67260;53.130;17.982;2023-12-22T01:35:43;97244.64;;;3.23;83.31
77013;BME280;67260;53.130;17.982;2023-12-22T01:38:12;97251.64;;;3.26;83.25
77013;BME280;67260;53.130;17.982;2023-12-22T01:40:41;97253.39;;;3.27;82.70
77013;BME280;67260;53.130;17.982;2023-12-22T01:43:13;97256.20;;;3.29;82.38
77013;BME280;67260;53.130;17.982;2023-12-22T01:45:44;97252.81;;;3.31;82.12
77013;BME280;67260;53.130;17.982;2023-12-22T01:48:15;97253.23;;;3.33;82.35
77013;BME280;67260;53.130;17.982;2023-12-22T01:50:49;97256.33;;;3.32;82.57
77013;BME280;67260;53.130;17.982;2023-12-22T01:53:46;97261.92;;;3.31;82.43
77013;BME280;67260;53.130;17.982;2023-12-22T01:56:29;97271.33;;;3.27;82.63
77013;BME280;67260;53.130;17.982;2023-12-22T01:59:05;97270.73;;;3.22;82.85
77013;BME280;67260;53.130;17.982;2023-12-22T02:01:35;97275.61;;;3.17;83.24
77013;BME280;67260;53.130;17.982;2023-12-22T02:04:05;97277.35;;;3.13;83.55
77013;BME280;67260;53.130;17.982;2023-12-22T02:06:34;97277.47;;;3.08;83.71
77013;BME280;67260;53.130;17.982;2023-12-22T02:09:31;97284.04;;;3.05;83.94
77013;BME280;67260;53.130;17.982;2023-12-22T02:12:42;97275.85;;;3.01;83.99
77013;BME280;67260;53.130;17.982;2023-12-22T02:15:13;97274.31;;;2.99;83.82
77013;BME280;67260;53.130;17.982;2023-12-22T02:17:58;97282.33;;;2.95;84.01
77013;BME280;67260;53.130;17.982;2023-12-22T02:20:30;97281.04;;;2.92;84.03
77013;BME280;67260;53.130;17.982;2023-12-22T02:26:25;97277.29;;;2.90;83.89
77013;BME280;67260;53.130;17.982;2023-12-22T02:28:57;97281.48;;;2.90;83.83
77013;BME280;67260;53.130;17.982;2023-12-22T02:31:37;97289.17;;;2.89;83.84
77013;BME280;67260;53.130;17.982;2023-12-22T02:34:12;97288.16;;;2.88;83.77
77013;BME280;67260;53.130;17.982;2023-12-22T02:36:44;97285.36;;;2.86;83.44
77013;BME280;67260;53.130;17.982;2023-12-22T02:39:12;97288.74;;;2.84;83.24
77013;BME280;67260;53.130;17.982;2023-12-22T02:41:42;97294.23;;;2.83;83.33
77013;BME280;67260;53.130;17.982;2023-12-22T02:44:14;97294.03;;;2.81;83.18
77013;BME280;67260;53.130;17.982;2023-12-22T02:46:44;97289.73;;;2.77;83.20
77013;BME280;67260;53.130;17.982;2023-12-22T02:49:13;97293.83;;;2.74;83.09
77013;BME280;67260;53.130;17.982;2023-12-22T02:51:47;97300.10;;;2.72;83.38
77013;BME280;67260;53.130;17.982;2023-12-22T02:54:18;97300.66;;;2.71;82.92
77013;BME280;67260;53.130;17.982;2023-12-22T02:56:48;97293.51;;;2.70;82.68
77013;BME280;67260;53.130;17.982;2023-12-22T02:59:14;97300.30;;;2.71;81.61
77013;BME280;67260;53.130;17.982;2023-12-22T03:01:46;97292.13;;;2.72;81.52
77013;BME280;67260;53.130;17.982;2023-12-22T03:04:25;97301.61;;;2.72;81.34
77013;BME280;67260;53.130;17.982;2023-12-22T03:07:05;97308.04;;;2.74;80.81
77013;BME280;67260;53.130;17.982;2023-12-22T03:09:32;97309.25;;;2.77;81.32
77013;BME280;67260;53.130;17.982;2023-12-22T03:12:03;97302.69;;;2.81;80.81
77013;BME280;67260;53.130;17.982;2023-12-22T03:14:30;97294.58;;;2.86;79.95
77013;BME280;67260;53.130;17.982;2023-12-22T03:17:03;97294.40;;;2.92;79.48
77013;BME280;67260;53.130;17.982;2023-12-22T03:19:31;97302.28;;;2.96;79.59
77013;BME280;67260;53.130;17.982;2023-12-22T03:22:01;97298.65;;;3.00;79.32
77013;BME280;67260;53.130;17.982;2023-12-22T03:24:27;97293.70;;;3.02;79.07
77013;BME280;67260;53.130;17.982;2023-12-22T03:26:58;97303.86;;;3.01;78.25
77013;BME280;67260;53.130;17.982;2023-12-22T03:29:28;97313.21;;;2.98;77.35
77013;BME280;67260;53.130;17.982;2023-12-22T03:31:58;97316.96;;;2.96;77.57
77013;BME280;67260;53.130;17.982;2023-12-22T03:34:29;97314.81;;;2.97;75.85
77013;BME280;67260;53.130;17.982;2023-12-22T03:37:04;97322.82;;;2.99;75.97
77013;BME280;67260;53.130;17.982;2023-12-22T03:39:34;97326.27;;;3.01;75.19
77013;BME280;67260;53.130;17.982;2023-12-22T03:42:02;97328.31;;;3.05;74.74
77013;BME280;67260;53.130;17.982;2023-12-22T03:44:35;97336.69;;;3.09;73.38
77013;BME280;67260;53.130;17.982;2023-12-22T03:47:05;97330.33;;;3.13;72.17
77013;BME280;67260;53.130;17.982;2023-12-22T03:49:34;97337.89;;;3.18;73.10
77013;BME280;67260;53.130;17.982;2023-12-22T03:52:00;97335.52;;;3.22;72.12
77013;BME280;67260;53.130;17.982;2023-12-22T03:54:32;97334.73;;;3.25;72.19
77013;BME280;67260;53.130;17.982;2023-12-22T03:57:00;97335.81;;;3.28;72.44
77013;BME280;67260;53.130;17.982;2023-12-22T03:59:31;97336.46;;;3.29;72.50
77013;BME280;67260;53.130;17.982;2023-12-22T04:02:00;97330.99;;;3.32;71.21
77013;BME280;67260;53.130;17.982;2023-12-22T04:04:31;97331.57;;;3.36;70.47
77013;BME280;67260;53.130;17.982;2023-12-22T04:07:02;97336.04;;;3.41;70.28
77013;BME280;67260;53.130;17.982;2023-12-22T04:09:33;97340.06;;;3.44;71.21
77013;BME280;67260;53.130;17.982;2023-12-22T04:12:02;97339.87;;;3.46;71.49
77013;BME280;67260;53.130;17.982;2023-12-22T04:14:29;97344.96;;;3.46;69.84
77013;BME280;67260;53.130;17.982;2023-12-22T04:17:01;97349.49;;;3.48;70.93
77013;BME280;67260;53.130;17.982;2023-12-22T04:19:31;97347.71;;;3.48;70.77
77013;BME280;67260;53.130;17.982;2023-12-22T04:22:04;97354.08;;;3.49;70.88
77013;BME280;67260;53.130;17.982;2023-12-22T04:24:31;97357.16;;;3.48;70.05
77013;BME280;67260;53.130;17.982;2023-12-22T04:27:01;97365.04;;;3.48;71.00
77013;BME280;67260;53.130;17.982;2023-12-22T04:29:32;97373.48;;;3.48;70.61
77013;BME280;67260;53.130;17.982;2023-12-22T04:32:02;97372.64;;;3.47;69.07
77013;BME280;67260;53.130;17.982;2023-12-22T04:34:30;97362.98;;;3.47;69.56
77013;BME280;67260;53.130;17.982;2023-12-22T04:36:56;97364.05;;;3.45;67.77
77013;BME280;67260;53.130;17.982;2023-12-22T04:39:24;97355.59;;;3.44;68.20
77013;BME280;67260;53.130;17.982;2023-12-22T04:41:54;97354.76;;;3.44;68.46
77013;BME280;67260;53.130;17.982;2023-12-22T04:44:20;97354.74;;;3.43;68.79
77013;BME280;67260;53.130;17.982;2023-12-22T04:46:48;97364.39;;;3.43;69.17
77013;BME280;67260;53.130;17.982;2023-12-22T04:49:15;97369.07;;;3.43;68.07
77013;BME280;67260;53.130;17.982;2023-12-22T04:51:42;97373.13;;;3.44;67.44
77013;BME280;67260;53.130;17.982;2023-12-22T04:54:09;97373.27;;;3.43;68.11
77013;BME280;67260;53.130;17.982;2023-12-22T04:56:35;97379.96;;;3.42;67.54
77013;BME280;67260;53.130;17.982;2023-12-22T04:59:02;97386.08;;;3.40;67.22
77013;BME280;67260;53.130;17.982;2023-12-22T05:01:30;97389.94;;;3.39;68.16
77013;BME280;67260;53.130;17.982;2023-12-22T05:03:58;97386.39;;;3.36;67.53
77013;BME280;67260;53.130;17.982;2023-12-22T05:06:28;97394.02;;;3.34;68.52
77013;BME280;67260;53.130;17.982;2023-12-22T05:08:57;97396.93;;;3.32;68.42
77013;BME280;67260;53.130;17.982;2023-12-22T05:11:27;97390.52;;;3.31;66.93
77013;BME280;67260;53.130;17.982;2023-12-22T05:13:56;97388.83;;;3.30;65.93
77013;BME280;67260;53.130;17.982;2023-12-22T05:16:24;97385.67;;;3.29;67.03
77013;BME280;67260;53.130;17.982;2023-12-22T05:19:00;97375.31;;;3.27;66.47
77013;BME280;67260;53.130;17.982;2023-12-22T05:21:28;97379.70;;;3.26;65.78
77013;BME280;67260;53.130;17.982;2023-12-22T05:23:56;97378.78;;;3.24;66.08
77013;BME280;67260;53.130;17.982;2023-12-22T05:26:23;97371.93;;;3.22;65.44
77013;BME280;67260;53.130;17.982;2023-12-22T05:28:53;97383.33;;;3.20;64.94
77013;BME280;67260;53.130;17.982;2023-12-22T05:31:20;97378.21;;;3.17;64.84
77013;BME280;67260;53.130;17.982;2023-12-22T05:33:47;97367.33;;;3.15;64.76
77013;BME280;67260;53.130;17.982;2023-12-22T05:36:14;97372.94;;;3.09;62.65
77013;BME280;67260;53.130;17.982;2023-12-22T05:38:40;97376.89;;;3.03;63.63
77013;BME280;67260;53.130;17.982;2023-12-22T05:41:09;97384.22;;;2.95;63.62
77013;BME280;67260;53.130;17.982;2023-12-22T05:43:36;97374.63;;;2.88;64.03
77013;BME280;67260;53.130;17.982;2023-12-22T05:46:03;97381.39;;;2.82;63.99
77013;BME280;67260;53.130;17.982;2023-12-22T05:48:29;97382.73;;;2.77;64.17
77013;BME280;67260;53.130;17.982;2023-12-22T05:50:56;97388.84;;;2.73;63.91
77013;BME280;67260;53.130;17.982;2023-12-22T05:53:24;97382.08;;;2.69;64.31
77013;BME280;67260;53.130;17.982;2023-12-22T05:55:50;97385.38;;;2.66;63.08
77013;BME280;67260;53.130;17.982;2023-12-22T05:58:17;97389.50;;;2.65;63.75
77013;BME280;67260;53.130;17.982;2023-12-22T06:00:44;97401.23;;;2.61;64.46
77013;BME280;67260;53.130;17.982;2023-12-22T06:03:11;97401.13;;;2.57;64.00
77013;BME280;67260;53.130;17.982;2023-12-22T06:05:38;97397.55;;;2.54;63.81
77013;BME280;67260;53.130;17.982;2023-12-22T06:08:05;97393.98;;;2.51;64.22
77013;BME280;67260;53.130;17.982;2023-12-22T06:10:32;97394.08;;;2.50;64.37
77013;BME280;67260;53.130;17.982;2023-12-22T06:12:59;97400.78;;;2.53;64.68
77013;BME280;67260;53.130;17.982;2023-12-22T06:15:29;97401.05;;;2.56;65.37
77013;BME280;67260;53.130;17.982;2023-12-22T06:17:56;97393.45;;;2.56;65.81
77013;BME280;67260;53.130;17.982;2023-12-22T06:20:27;97395.27;;;2.55;65.90
77013;BME280;67260;53.130;17.982;2023-12-22T06:22:53;97395.06;;;2.53;66.97
77013;BME280;67260;53.130;17.982;2023-12-22T06:25:20;97393.86;;;2.50;67.10
77013;BME280;67260;53.130;17.982;2023-12-22T06:27:47;97401.33;;;2.48;66.68
77013;BME280;67260;53.130;17.982;2023-12-22T06:30:14;97407.23;;;2.47;66.38
77013;BME280;67260;53.130;17.982;2023-12-22T06:32:41;97412.55;;;2.49;66.09
77013;BME280;67260;53.130;17.982;2023-12-22T06:35:25;97414.78;;;2.50;65.51
77013;BME280;67260;53.130;17.982;2023-12-22T06:38:25;97414.96;;;2.46;66.61
77013;BME280;67260;53.130;17.982;2023-12-22T06:40:55;97428.96;;;2.38;67.41
77013;BME280;67260;53.130;17.982;2023-12-22T06:43:34;97448.88;;;2.30;68.83
77013;BME280;67260;53.130;17.982;2023-12-22T06:46:03;97462.30;;;2.22;69.90
77013;BME280;67260;53.130;17.982;2023-12-22T06:48:47;97459.20;;;2.16;70.60
77013;BME280;67260;53.130;17.982;2023-12-22T06:51:20;97448.24;;;2.10;71.58
77013;BME280;67260;53.130;17.982;2023-12-22T06:53:57;97440.67;;;1.99;72.00
77013;BME280;67260;53.130;17.982;2023-12-22T06:56:32;97431.83;;;1.88;72.84
77013;BME280;67260;53.130;17.982;2023-12-22T06:59:03;97425.85;;;1.77;73.07
77013;BME280;67260;53.130;17.982;2023-12-22T07:01:44;97421.38;;;1.73;73.38
77013;BME280;67260;53.130;17.982;2023-12-22T07:07:55;97440.15;;;1.71;72.94
77013;BME280;67260;53.130;17.982;2023-12-22T07:10:24;97434.31;;;1.74;72.59
77013;BME280;67260;53.130;17.982;2023-12-22T07:16:55;97419.20;;;1.92;69.19
77013;BME280;67260;53.130;17.982;2023-12-22T07:19:32;97417.58;;;2.01;68.86
77013;BME280;67260;53.130;17.982;2023-12-22T07:22:21;97404.67;;;2.09;68.98
77013;BME280;67260;53.130;17.982;2023-12-22T07:24:48;97405.76;;;2.17;68.41
77013;BME280;67260;53.130;17.982;2023-12-22T07:31:08;97400.91;;;2.39;66.64
77013;BME280;67260;53.130;17.982;2023-12-22T07:33:35;97409.09;;;2.46;66.22
77013;BME280;67260;53.130;17.982;2023-12-22T07:36:02;97409.73;;;2.52;65.69
77013;BME280;67260;53.130;17.982;2023-12-22T07:38:36;97410.73;;;2.58;64.61
77013;BME280;67260;53.130;17.982;2023-12-22T07:41:14;97414.53;;;2.67;65.10
77013;BME280;67260;53.130;17.982;2023-12-22T07:59:00;97395.14;;;5.97;58.70
77013;BME280;67260;53.130;17.982;2023-12-22T08:04:35;97389.39;;;7.82;53.05
77013;BME280;67260;53.130;17.982;2023-12-22T08:07:02;97391.42;;;8.33;52.17
77013;BME280;67260;53.130;17.982;2023-12-22T08:09:29;97408.75;;;9.17;52.47
77013;BME280;67260;53.130;17.982;2023-12-22T08:11:58;97404.54;;;9.90;50.35
77013;BME280;67260;53.130;17.982;2023-12-22T08:14:25;97402.27;;;10.08;52.02
77013;BME280;67260;53.130;17.982;2023-12-22T08:16:52;97407.63;;;10.54;52.10
77013;BME280;67260;53.130;17.982;2023-12-22T08:19:21;97404.86;;;11.43;49.12
77013;BME280;67260;53.130;17.982;2023-12-22T08:22:02;97415.58;;;11.54;47.30
77013;BME280;67260;53.130;17.982;2023-12-22T08:24:37;97422.56;;;11.20;46.81
77013;BME280;67260;53.130;17.982;2023-12-22T08:47:33;97439.02;;;5.93;58.32
77013;BME280;67260;53.130;17.982;2023-12-22T08:50:18;97426.82;;;5.05;60.96
77013;BME280;67260;53.130;17.982;2023-12-22T08:53:24;97423.02;;;4.43;62.51
77013;BME280;67260;53.130;17.982;2023-12-22T09:07:36;97399.67;;;8.24;55.20
77013;BME280;67260;53.130;17.982;2023-12-22T09:22:23;97404.17;;;6.42;57.56
77013;BME280;67260;53.130;17.982;2023-12-22T09:28:58;97410.03;;;5.22;60.04
77013;BME280;67260;53.130;17.982;2023-12-22T09:38:59;97404.85;;;4.57;62.81
77013;BME280;67260;53.130;17.982;2023-12-22T09:48:03;97401.78;;;4.09;64.45
77013;BME280;67260;53.130;17.982;2023-12-22T09:50:33;97405.33;;;3.97;65.14
77013;BME280;67260;53.130;17.982;2023-12-22T09:53:06;97405.83;;;3.78;65.88
77013;BME280;67260;53.130;17.982;2023-12-22T09:55:35;97407.92;;;3.61;66.83
77013;BME280;67260;53.130;17.982;2023-12-22T09:58:05;97404.67;;;3.45;67.31
77013;BME280;67260;53.130;17.982;2023-12-22T10:00:36;97411.29;;;3.34;68.10
77013;BME280;67260;53.130;17.982;2023-12-22T10:03:11;97419.95;;;3.27;69.12
77013;BME280;67260;53.130;17.982;2023-12-22T10:06:05;97409.83;;;3.20;69.63
77013;BME280;67260;53.130;17.982;2023-12-22T10:08:32;97406.27;;;3.08;70.38
77013;BME280;67260;53.130;17.982;2023-12-22T10:11:01;97411.84;;;2.99;70.75
77013;BME280;67260;53.130;17.982;2023-12-22T10:13:35;97416.90;;;2.90;72.00
77013;BME280;67260;53.130;17.982;2023-12-22T10:16:04;97408.70;;;2.85;72.78
77013;BME280;67260;53.130;17.982;2023-12-22T10:18:33;97420.39;;;2.75;73.40
77013;BME280;67260;53.130;17.982;2023-12-22T10:25:20;97419.50;;;2.56;74.63
77013;BME280;67260;53.130;17.982;2023-12-22T10:27:52;97417.30;;;2.48;75.46
77013;BME280;67260;53.130;17.982;2023-12-22T10:30:19;97415.52;;;2.36;75.51
77013;BME280;67260;53.130;17.982;2023-12-22T10:32:52;97416.34;;;2.25;76.14
77013;BME280;67260;53.130;17.982;2023-12-22T10:43:20;97405.84;;;2.15;78.34
77013;BME280;67260;53.130;17.982;2023-12-22T10:45:58;97396.64;;;2.20;78.67
77013;BME280;67260;53.130;17.982;2023-12-22T10:48:25;97396.25;;;2.25;78.18
77013;BME280;67260;53.130;17.982;2023-12-22T10:50:59;97398.38;;;2.26;77.56
77013;BME280;67260;53.130;17.982;2023-12-22T10:53:56;97393.49;;;2.31;77.17
77013;BME280;67260;53.130;17.982;2023-12-22T10:56:47;97389.56;;;2.38;77.82
77013;BME280;67260;53.130;17.982;2023-12-22T11:03:23;97373.94;;;2.34;78.14
77013;BME280;67260;53.130;17.982;2023-12-22T11:15:15;97362.50;;;2.57;76.70
77013;BME280;67260;53.130;17.982;2023-12-22T11:22:01;97369.73;;;2.51;76.78
77013;BME280;67260;53.130;17.982;2023-12-22T11:24:30;97367.66;;;2.44;77.07
77013;BME280;67260;53.130;17.982;2023-12-22T11:45:52;97394.54;;;2.22;78.71
77013;BME280;67260;53.130;17.982;2023-12-22T12:01:20;97414.36;;;1.74;80.54
77013;BME280;67260;53.130;17.982;2023-12-22T12:04:03;97418.83;;;1.70;80.60
77013;BME280;67260;53.130;17.982;2023-12-22T12:10:52;97413.98;;;1.62;81.30
77013;BME280;67260;53.130;17.982;2023-12-22T12:13:23;97413.19;;;1.59;81.70
77013;BME280;67260;53.130;17.982;2023-12-22T12:15:55;97424.52;;;1.58;81.53
77013;BME280;67260;53.130;17.982;2023-12-22T12:18:22;97423.79;;;1.58;81.78
77013;BME280;67260;53.130;17.982;2023-12-22T12:20:52;97426.36;;;1.61;81.58
77013;BME280;67260;53.130;17.982;2023-12-22T12:23:19;97419.23;;;1.66;81.94
77013;BME280;67260;53.130;17.982;2023-12-22T12:25:47;97412.05;;;1.68;82.18
77013;BME280;67260;53.130;17.982;2023-12-22T12:43:49;97406.27;;;1.78;82.41
77013;BME280;67260;53.130;17.982;2023-12-22T12:46:18;97402.44;;;1.74;83.30
77013;BME280;67260;53.130;17.982;2023-12-22T13:05:35;97407.77;;;1.43;84.61
77013;BME280;67260;53.130;17.982;2023-12-22T13:15:09;97422.86;;;1.47;84.98
77013;BME280;67260;53.130;17.982;2023-12-22T13:17:39;97430.87;;;1.50;84.90
77013;BME280;67260;53.130;17.982;2023-12-22T13:20:06;97438.60;;;1.52;84.61
77013;BME280;67260;53.130;17.982;2023-12-22T13:22:34;97436.09;;;1.54;84.57
77013;BME280;67260;53.130;17.982;2023-12-22T13:25:01;97441.76;;;1.57;84.34
77013;BME280;67260;53.130;17.982;2023-12-22T13:27:43;97453.75;;;1.58;84.64
77013;BME280;67260;53.130;17.982;2023-12-22T13:30:10;97460.44;;;1.55;84.83
77013;BME280;67260;53.130;17.982;2023-12-22T13:32:37;97463.70;;;1.53;84.64
77013;BME280;67260;53.130;17.982;2023-12-22T13:35:04;97469.77;;;1.52;84.53
77013;BME280;67260;53.130;17.982;2023-12-22T13:37:33;97476.38;;;1.52;84.88
77013;BME280;67260;53.130;17.982;2023-12-22T13:40:00;97478.38;;;1.53;84.99
77013;BME280;67260;53.130;17.982;2023-12-22T13:42:27;97484.66;;;1.50;84.75
77013;BME280;67260;53.130;17.982;2023-12-22T13:44:53;97492.16;;;1.47;84.98
77013;BME280;67260;53.130;17.982;2023-12-22T13:47:21;97497.80;;;1.44;85.41
77013;BME280;67260;53.130;17.982;2023-12-22T13:49:49;97499.77;;;1.43;85.37
77013;BME280;67260;53.130;17.982;2023-12-22T13:52:31;97506.29;;;1.42;85.19
77013;BME280;67260;53.130;17.982;2023-12-22T13:55:01;97507.97;;;1.43;85.27
77013;BME280;67260;53.130;17.982;2023-12-22T13:57:30;97505.96;;;1.40;85.45
77013;BME280;67260;53.130;17.982;2023-12-22T14:02:48;97518.66;;;1.39;85.40
77013;BME280;67260;53.130;17.982;2023-12-22T14:05:17;97528.08;;;1.39;85.42
77013;BME280;67260;53.130;17.982;2023-12-22T14:07:44;97531.61;;;1.39;85.71
77013;BME280;67260;53.130;17.982;2023-12-22T14:10:11;97521.13;;;1.37;85.45
77013;BME280;67260;53.130;17.982;2023-12-22T14:12:42;97530.83;;;1.38;85.54
77013;BME280;67260;53.130;17.982;2023-12-22T14:15:12;97536.70;;;1.37;85.57
77013;BME280;67260;53.130;17.982;2023-12-22T14:17:40;97532.80;;;1.35;85.72
77013;BME280;67260;53.130;17.982;2023-12-22T14:20:09;97548.50;;;1.34;85.69
77013;BME280;67260;53.130;17.982;2023-12-22T14:22:36;97546.70;;;1.31;85.91
77013;BME280;67260;53.130;17.982;2023-12-22T14:25:04;97556.61;;;1.27;86.41
77013;BME280;67260;53.130;17.982;2023-12-22T14:27:31;97563.48;;;1.23;86.31
77013;BME280;67260;53.130;17.982;2023-12-22T14:30:02;97558.44;;;1.21;86.13
77013;BME280;67260;53.130;17.982;2023-12-22T14:32:31;97563.19;;;1.20;86.09
77013;BME280;67260;53.130;17.982;2023-12-22T14:35:00;97563.05;;;1.19;86.17
77013;BME280;67260;53.130;17.982;2023-12-22T14:37:55;97565.36;;;1.17;86.41
77013;BME280;67260;53.130;17.982;2023-12-22T14:43:35;97572.18;;;1.16;86.38
77013;BME280;67260;53.130;17.982;2023-12-22T14:46:02;97581.07;;;1.16;86.39
77013;BME280;67260;53.130;17.982;2023-12-22T14:48:46;97580.98;;;1.17;86.37
77013;BME280;67260;53.130;17.982;2023-12-22T14:55:21;97591.97;;;1.19;86.00
77013;BME280;67260;53.130;17.982;2023-12-22T14:57:50;97590.61;;;1.19;85.86
77013;BME280;67260;53.130;17.982;2023-12-22T15:00:19;97591.86;;;1.21;85.77
77013;BME280;67260;53.130;17.982;2023-12-22T15:02:49;97594.58;;;1.23;85.00
77013;BME280;67260;53.130;17.982;2023-12-22T15:05:17;97601.52;;;1.26;84.88
77013;BME280;67260;53.130;17.982;2023-12-22T15:07:44;97601.66;;;1.30;84.52
77013;BME280;67260;53.130;17.982;2023-12-22T15:10:10;97602.88;;;1.33;84.13
77013;BME280;67260;53.130;17.982;2023-12-22T15:13:02;97605.11;;;1.34;83.64
77013;BME280;67260;53.130;17.982;2023-12-22T15:15:31;97608.15;;;1.32;83.21
77013;BME280;67260;53.130;17.982;2023-12-22T15:17:58;97607.28;;;1.34;82.63
77013;BME280;67260;53.130;17.982;2023-12-22T15:20:27;97605.15;;;1.34;82.06
77013;BME280;67260;53.130;17.982;2023-12-22T15:22:53;97610.11;;;1.34;81.85
77013;BME280;67260;53.130;17.982;2023-12-22T15:28:09;97621.33;;;1.28;81.87
77013;BME280;67260;53.130;17.982;2023-12-22T15:30:39;97626.52;;;1.27;81.55
77013;BME280;67260;53.130;17.982;2023-12-22T15:33:09;97626.27;;;1.27;81.10
77013;BME280;67260;53.130;17.982;2023-12-22T15:35:36;97626.33;;;1.27;80.70
77013;BME280;67260;53.130;17.982;2023-12-22T15:38:06;97629.02;;;1.27;80.38
77013;BME280;67260;53.130;17.982;2023-12-22T15:40:33;97631.20;;;1.26;79.88
77013;BME280;67260;53.130;17.982;2023-12-22T15:43:04;97638.73;;;1.26;79.66
77013;BME280;67260;53.130;17.982;2023-12-22T15:45:31;97638.86;;;1.25;79.57
77013;BME280;67260;53.130;17.982;2023-12-22T15:47:58;97645.02;;;1.24;79.39
77013;BME280;67260;53.130;17.982;2023-12-22T15:50:33;97644.00;;;1.23;79.10
77013;BME280;67260;53.130;17.982;2023-12-22T15:53:00;97649.47;;;1.23;78.21
77013;BME280;67260;53.130;17.982;2023-12-22T15:55:32;97652.54;;;1.26;77.80
77013;BME280;67260;53.130;17.982;2023-12-22T15:58:03;97661.39;;;1.28;77.84
77013;BME280;67260;53.130;17.982;2023-12-22T16:00:33;97665.16;;;1.28;78.22
77013;BME280;67260;53.130;17.982;2023-12-22T16:03:56;97669.58;;;1.29;77.95
77013;BME280;67260;53.130;17.982;2023-12-22T16:14:35;97683.04;;;1.37;76.91
77013;BME280;67260;53.130;17.982;2023-12-22T16:17:07;97692.20;;;1.41;77.03
77013;BME280;67260;53.130;17.982;2023-12-22T16:19:41;97697.54;;;1.45;76.50
77013;BME280;67260;53.130;17.982;2023-12-22T16:22:52;97703.05;;;1.48;76.49
77013;BME280;67260;53.130;17.982;2023-12-22T16:25:18;97705.31;;;1.46;76.13
77013;BME280;67260;53.130;17.982;2023-12-22T16:27:45;97709.05;;;1.45;74.77
77013;BME280;67260;53.130;17.982;2023-12-22T16:30:12;97716.14;;;1.44;75.20
77013;BME280;67260;53.130;17.982;2023-12-22T16:32:39;97717.73;;;1.41;75.23
77013;BME280;67260;53.130;17.982;2023-12-22T16:35:07;97718.01;;;1.39;75.21
77013;BME280;67260;53.130;17.982;2023-12-22T16:37:35;97722.44;;;1.39;74.07
77013;BME280;67260;53.130;17.982;2023-12-22T16:40:03;97732.86;;;1.39;74.70
77013;BME280;67260;53.130;17.982;2023-12-22T16:42:37;97738.09;;;1.39;74.04
77013;BME280;67260;53.130;17.982;2023-12-22T16:45:16;97735.77;;;1.39;74.40
77013;BME280;67260;53.130;17.982;2023-12-22T16:47:43;97736.80;;;1.40;74.29
77013;BME280;67260;53.130;17.982;2023-12-22T16:50:11;97741.80;;;1.41;74.32
77013;BME280;67260;53.130;17.982;2023-12-22T16:52:56;97757.58;;;1.44;73.79
77013;BME280;67260;53.130;17.982;2023-12-22T16:55:25;97754.54;;;1.46;74.12
77013;BME280;67260;53.130;17.982;2023-12-22T16:57:54;97756.77;;;1.47;74.13
77013;BME280;67260;53.130;17.982;2023-12-22T17:00:21;97760.26;;;1.49;73.31
77013;BME280;67260;53.130;17.982;2023-12-22T17:02:55;97763.67;;;1.49;73.52
77013;BME280;67260;53.130;17.982;2023-12-22T17:05:22;97770.19;;;1.48;72.88